sensor_id;sensor_type;location;lat;lon;timestamp;P1;durP1;ratioP1;P2;durP2;ratioP2
14348;SDS011;7258;50.376;8.742;2024-03-23T00:54:11;19.40;;;13.67;;
14348;SDS011;7258;50.376;8.742;2024-03-23T00:56:13;15.17;;;12.10;;
14348;SDS011;7258;50.376;8.742;2024-03-23T00:58:14;15.23;;;12.93;;
14348;SDS011;7258;50.376;8.742;2024-03-23T01:00:16;17.53;;;12.67;;
14348;SDS011;7258;50.376;8.742;2024-03-23T01:02:17;15.83;;;12.90;;
14348;SDS011;7258;50.376;8.742;2024-03-23T01:04:20;16.73;;;12.77;;
14348;SDS011;7258;50.376;8.742;2024-03-23T01:06:21;16.77;;;13.83;;
14348;SDS011;7258;50.376;8.742;2024-03-23T01:08:23;15.77;;;12.47;;
14348;SDS011;7258;50.376;8.742;2024-03-23T01:10:25;17.00;;;12.90;;
14348;SDS011;7258;50.376;8.742;2024-03-23T01:12:27;15.40;;;13.10;;
14348;SDS011;7258;50.376;8.742;2024-03-23T01:14:28;14.57;;;12.70;;
14348;SDS011;7258;50.376;8.742;2024-03-23T01:16:30;16.73;;;13.60;;
14348;SDS011;7258;50.376;8.742;2024-03-23T01:18:32;20.47;;;14.03;;
14348;SDS011;7258;50.376;8.742;2024-03-23T01:20:34;16.70;;;13.93;;
14348;SDS011;7258;50.376;8.742;2024-03-23T01:22:35;16.27;;;13.63;;
14348;SDS011;7258;50.376;8.742;2024-03-23T01:24:37;17.60;;;15.03;;
14348;SDS011;7258;50.376;8.742;2024-03-23T01:26:39;17.33;;;14.37;;
14348;SDS011;7258;50.376;8.742;2024-03-23T01:28:41;18.03;;;15.30;;
14348;SDS011;7258;50.376;8.742;2024-03-23T01:30:42;21.20;;;15.90;;
14348;SDS011;7258;50.376;8.742;2024-03-23T01:32:44;21.13;;;15.87;;
14348;SDS011;7258;50.376;8.742;2024-03-23T01:34:45;21.67;;;15.30;;
14348;SDS011;7258;50.376;8.742;2024-03-23T01:36:46;21.03;;;16.67;;
14348;SDS011;7258;50.376;8.742;2024-03-23T01:38:48;21.33;;;16.10;;
14348;SDS011;7258;50.376;8.742;2024-03-23T01:40:50;18.87;;;15.83;;
14348;SDS011;7258;50.376;8.742;2024-03-23T01:43:01;22.50;;;16.30;;
14348;SDS011;7258;50.376;8.742;2024-03-23T01:45:06;21.27;;;15.83;;
14348;SDS011;7258;50.376;8.742;2024-03-23T01:47:08;18.77;;;16.00;;
14348;SDS011;7258;50.376;8.742;2024-03-23T01:49:10;19.40;;;16.30;;
14348;SDS011;7258;50.376;8.742;2024-03-23T01:51:12;20.60;;;16.00;;
14348;SDS011;7258;50.376;8.742;2024-03-23T01:53:15;21.77;;;16.87;;
14348;SDS011;7258;50.376;8.742;2024-03-23T01:55:17;21.20;;;16.00;;
14348;SDS011;7258;50.376;8.742;2024-03-23T01:57:19;23.63;;;17.43;;
14348;SDS011;7258;50.376;8.742;2024-03-23T01:59:22;23.00;;;17.60;;
14348;SDS011;7258;50.376;8.742;2024-03-23T02:01:25;25.83;;;18.63;;
14348;SDS011;7258;50.376;8.742;2024-03-23T02:03:26;26.23;;;19.30;;
14348;SDS011;7258;50.376;8.742;2024-03-23T02:05:28;25.13;;;20.23;;
14348;SDS011;7258;50.376;8.742;2024-03-23T02:07:30;27.20;;;21.20;;
14348;SDS011;7258;50.376;8.742;2024-03-23T02:09:32;30.53;;;21.37;;
14348;SDS011;7258;50.376;8.742;2024-03-23T02:11:34;32.10;;;22.93;;
14348;SDS011;7258;50.376;8.742;2024-03-23T02:13:35;32.23;;;22.90;;
14348;SDS011;7258;50.376;8.742;2024-03-23T02:15:39;30.80;;;22.43;;
14348;SDS011;7258;50.376;8.742;2024-03-23T02:17:41;29.57;;;21.90;;
14348;SDS011;7258;50.376;8.742;2024-03-23T02:19:42;30.17;;;22.77;;
14348;SDS011;7258;50.376;8.742;2024-03-23T02:21:43;31.37;;;22.37;;
14348;SDS011;7258;50.376;8.742;2024-03-23T02:23:48;29.10;;;21.37;;
14348;SDS011;7258;50.376;8.742;2024-03-23T02:25:49;28.37;;;21.57;;
14348;SDS011;7258;50.376;8.742;2024-03-23T02:27:51;32.17;;;23.80;;
14348;SDS011;7258;50.376;8.742;2024-03-23T02:29:54;29.57;;;21.93;;
14348;SDS011;7258;50.376;8.742;2024-03-23T02:31:56;30.13;;;22.83;;
14348;SDS011;7258;50.376;8.742;2024-03-23T02:33:59;31.37;;;23.60;;
14348;SDS011;7258;50.376;8.742;2024-03-23T02:36:00;30.67;;;22.07;;
14348;SDS011;7258;50.376;8.742;2024-03-23T02:38:01;34.07;;;24.90;;
14348;SDS011;7258;50.376;8.742;2024-03-23T02:40:06;33.60;;;24.37;;
14348;SDS011;7258;50.376;8.742;2024-03-23T02:42:07;32.00;;;24.50;;
14348;SDS011;7258;50.376;8.742;2024-03-23T02:44:09;34.37;;;24.90;;
14348;SDS011;7258;50.376;8.742;2024-03-23T02:46:12;35.30;;;25.67;;
14348;SDS011;7258;50.376;8.742;2024-03-23T02:48:14;33.90;;;24.40;;
14348;SDS011;7258;50.376;8.742;2024-03-23T02:50:15;32.63;;;24.33;;
14348;SDS011;7258;50.376;8.742;2024-03-23T02:52:17;37.90;;;25.70;;
14348;SDS011;7258;50.376;8.742;2024-03-23T02:54:18;33.90;;;23.30;;
14348;SDS011;7258;50.376;8.742;2024-03-23T02:56:21;32.27;;;24.57;;
14348;SDS011;7258;50.376;8.742;2024-03-23T02:58:22;32.13;;;23.17;;
14348;SDS011;7258;50.376;8.742;2024-03-23T03:00:24;33.03;;;23.83;;
14348;SDS011;7258;50.376;8.742;2024-03-23T03:02:25;35.53;;;24.27;;
14348;SDS011;7258;50.376;8.742;2024-03-23T03:04:27;31.17;;;23.07;;
14348;SDS011;7258;50.376;8.742;2024-03-23T03:06:30;29.13;;;22.33;;
14348;SDS011;7258;50.376;8.742;2024-03-23T03:08:32;30.93;;;23.23;;
14348;SDS011;7258;50.376;8.742;2024-03-23T03:10:33;30.30;;;23.40;;
14348;SDS011;7258;50.376;8.742;2024-03-23T03:12:37;32.93;;;24.17;;
14348;SDS011;7258;50.376;8.742;2024-03-23T03:14:38;32.37;;;24.67;;
14348;SDS011;7258;50.376;8.742;2024-03-23T03:16:41;39.20;;;25.63;;
14348;SDS011;7258;50.376;8.742;2024-03-23T03:18:41;40.20;;;25.90;;
14348;SDS011;7258;50.376;8.742;2024-03-23T03:20:44;34.80;;;24.00;;
14348;SDS011;7258;50.376;8.742;2024-03-23T03:22:44;32.77;;;24.97;;
14348;SDS011;7258;50.376;8.742;2024-03-23T03:24:47;35.40;;;24.63;;
14348;SDS011;7258;50.376;8.742;2024-03-23T03:26:48;35.33;;;25.23;;
14348;SDS011;7258;50.376;8.742;2024-03-23T03:28:52;34.87;;;26.17;;
14348;SDS011;7258;50.376;8.742;2024-03-23T03:30:53;34.57;;;25.47;;
14348;SDS011;7258;50.376;8.742;2024-03-23T03:32:55;36.03;;;26.07;;
14348;SDS011;7258;50.376;8.742;2024-03-23T03:34:56;35.97;;;24.47;;
14348;SDS011;7258;50.376;8.742;2024-03-23T03:36:58;33.17;;;24.83;;
14348;SDS011;7258;50.376;8.742;2024-03-23T03:38:59;34.10;;;25.67;;
14348;SDS011;7258;50.376;8.742;2024-03-23T03:41:03;33.40;;;25.07;;
14348;SDS011;7258;50.376;8.742;2024-03-23T03:43:05;38.93;;;26.43;;
14348;SDS011;7258;50.376;8.742;2024-03-23T03:45:08;34.70;;;25.07;;
14348;SDS011;7258;50.376;8.742;2024-03-23T03:47:09;35.77;;;25.10;;
14348;SDS011;7258;50.376;8.742;2024-03-23T03:49:11;37.63;;;26.67;;
14348;SDS011;7258;50.376;8.742;2024-03-23T03:51:12;34.43;;;24.80;;
14348;SDS011;7258;50.376;8.742;2024-03-23T03:53:13;34.60;;;24.80;;
14348;SDS011;7258;50.376;8.742;2024-03-23T03:55:15;36.00;;;25.47;;
14348;SDS011;7258;50.376;8.742;2024-03-23T03:57:17;38.47;;;26.53;;
14348;SDS011;7258;50.376;8.742;2024-03-23T03:59:19;36.67;;;25.63;;
14348;SDS011;7258;50.376;8.742;2024-03-23T04:01:23;36.23;;;25.97;;
14348;SDS011;7258;50.376;8.742;2024-03-23T04:03:23;36.37;;;25.90;;
14348;SDS011;7258;50.376;8.742;2024-03-23T04:05:26;33.93;;;25.20;;
14348;SDS011;7258;50.376;8.742;2024-03-23T04:07:27;47.43;;;30.30;;
14348;SDS011;7258;50.376;8.742;2024-03-23T04:09:29;51.57;;;33.07;;
14348;SDS011;7258;50.376;8.742;2024-03-23T04:11:30;52.33;;;32.53;;
14348;SDS011;7258;50.376;8.742;2024-03-23T04:13:32;51.33;;;33.13;;
14348;SDS011;7258;50.376;8.742;2024-03-23T04:15:34;51.27;;;32.03;;
14348;SDS011;7258;50.376;8.742;2024-03-23T04:17:37;56.63;;;33.77;;
14348;SDS011;7258;50.376;8.742;2024-03-23T04:19:38;56.97;;;32.27;;
14348;SDS011;7258;50.376;8.742;2024-03-23T04:21:41;56.63;;;32.57;;
14348;SDS011;7258;50.376;8.742;2024-03-23T04:23:42;53.33;;;29.23;;
14348;SDS011;7258;50.376;8.742;2024-03-23T04:25:44;49.13;;;27.37;;
14348;SDS011;7258;50.376;8.742;2024-03-23T04:27:45;41.97;;;19.03;;
14348;SDS011;7258;50.376;8.742;2024-03-23T04:29:47;0.43;;;0.43;;
14348;SDS011;7258;50.376;8.742;2024-03-23T04:31:49;0.50;;;0.50;;
14348;SDS011;7258;50.376;8.742;2024-03-23T04:33:52;0.10;;;0.10;;
14348;SDS011;7258;50.376;8.742;2024-03-23T04:35:53;0.20;;;0.20;;
14348;SDS011;7258;50.376;8.742;2024-03-23T04:37:55;0.63;;;0.63;;
14348;SDS011;7258;50.376;8.742;2024-03-23T04:39:59;0.20;;;0.20;;
14348;SDS011;7258;50.376;8.742;2024-03-23T04:42:01;0.30;;;0.30;;
14348;SDS011;7258;50.376;8.742;2024-03-23T04:44:03;0.43;;;0.43;;
14348;SDS011;7258;50.376;8.742;2024-03-23T04:46:05;1.93;;;1.83;;
14348;SDS011;7258;50.376;8.742;2024-03-23T04:48:06;0.10;;;0.10;;
14348;SDS011;7258;50.376;8.742;2024-03-23T04:50:10;0.10;;;0.10;;
14348;SDS011;7258;50.376;8.742;2024-03-23T04:52:12;0.10;;;0.10;;
14348;SDS011;7258;50.376;8.742;2024-03-23T04:54:13;0.20;;;0.20;;
14348;SDS011;7258;50.376;8.742;2024-03-23T04:56:15;0.20;;;0.20;;
14348;SDS011;7258;50.376;8.742;2024-03-23T04:58:16;0.20;;;0.20;;
14348;SDS011;7258;50.376;8.742;2024-03-23T05:00:18;0.20;;;0.20;;
14348;SDS011;7258;50.376;8.742;2024-03-23T05:02:19;0.10;;;0.10;;
14348;SDS011;7258;50.376;8.742;2024-03-23T05:04:21;0.20;;;0.20;;
14348;SDS011;7258;50.376;8.742;2024-03-23T05:06:23;0.20;;;0.20;;
14348;SDS011;7258;50.376;8.742;2024-03-23T05:08:25;1.97;;;1.80;;
14348;SDS011;7258;50.376;8.742;2024-03-23T05:10:26;2.17;;;1.70;;
14348;SDS011;7258;50.376;8.742;2024-03-23T05:12:28;4.17;;;1.70;;
14348;SDS011;7258;50.376;8.742;2024-03-23T05:14:29;2.53;;;2.10;;
14348;SDS011;7258;50.376;8.742;2024-03-23T05:16:31;4.37;;;2.20;;
14348;SDS011;7258;50.376;8.742;2024-03-23T05:18:33;3.07;;;2.40;;
14348;SDS011;7258;50.376;8.742;2024-03-23T05:20:35;3.63;;;2.13;;
14348;SDS011;7258;50.376;8.742;2024-03-23T05:22:38;2.90;;;2.30;;
14348;SDS011;7258;50.376;8.742;2024-03-23T05:24:40;3.30;;;2.20;;
14348;SDS011;7258;50.376;8.742;2024-03-23T05:26:42;2.63;;;2.20;;
14348;SDS011;7258;50.376;8.742;2024-03-23T05:28:44;3.07;;;2.20;;
14348;SDS011;7258;50.376;8.742;2024-03-23T05:30:49;2.63;;;2.10;;
14348;SDS011;7258;50.376;8.742;2024-03-23T05:32:51;4.63;;;2.27;;
14348;SDS011;7258;50.376;8.742;2024-03-23T05:34:53;2.10;;;1.90;;
14348;SDS011;7258;50.376;8.742;2024-03-23T05:36:57;2.30;;;1.53;;
14348;SDS011;7258;50.376;8.742;2024-03-23T05:38:59;3.03;;;2.00;;
14348;SDS011;7258;50.376;8.742;2024-03-23T05:41:01;1.63;;;1.53;;
14348;SDS011;7258;50.376;8.742;2024-03-23T05:43:02;2.87;;;2.10;;
14348;SDS011;7258;50.376;8.742;2024-03-23T05:45:05;2.50;;;1.90;;
14348;SDS011;7258;50.376;8.742;2024-03-23T05:47:07;1.93;;;1.67;;
14348;SDS011;7258;50.376;8.742;2024-03-23T05:49:08;1.93;;;1.20;;
14348;SDS011;7258;50.376;8.742;2024-03-23T05:51:09;1.40;;;1.27;;
14348;SDS011;7258;50.376;8.742;2024-03-23T05:53:12;1.87;;;1.30;;
14348;SDS011;7258;50.376;8.742;2024-03-23T05:55:16;2.93;;;1.30;;
14348;SDS011;7258;50.376;8.742;2024-03-23T05:57:18;1.40;;;1.30;;
14348;SDS011;7258;50.376;8.742;2024-03-23T05:59:19;1.43;;;1.07;;
14348;SDS011;7258;50.376;8.742;2024-03-23T06:01:21;1.00;;;0.93;;
14348;SDS011;7258;50.376;8.742;2024-03-23T06:03:22;1.13;;;1.03;;
14348;SDS011;7258;50.376;8.742;2024-03-23T06:05:24;0.80;;;0.80;;
14348;SDS011;7258;50.376;8.742;2024-03-23T06:07:25;0.83;;;0.83;;
14348;SDS011;7258;50.376;8.742;2024-03-23T06:09:27;0.70;;;0.70;;
14348;SDS011;7258;50.376;8.742;2024-03-23T06:11:33;0.60;;;0.60;;
14348;SDS011;7258;50.376;8.742;2024-03-23T06:13:35;0.70;;;0.70;;
14348;SDS011;7258;50.376;8.742;2024-03-23T06:15:36;2.10;;;0.80;;
14348;SDS011;7258;50.376;8.742;2024-03-23T06:17:38;1.73;;;0.60;;
14348;SDS011;7258;50.376;8.742;2024-03-23T06:19:40;0.43;;;0.43;;
14348;SDS011;7258;50.376;8.742;2024-03-23T06:21:43;0.70;;;0.70;;
14348;SDS011;7258;50.376;8.742;2024-03-23T06:23:44;0.60;;;0.60;;
14348;SDS011;7258;50.376;8.742;2024-03-23T06:25:51;0.80;;;0.80;;
14348;SDS011;7258;50.376;8.742;2024-03-23T06:27:53;0.70;;;0.70;;
14348;SDS011;7258;50.376;8.742;2024-03-23T06:29:55;0.90;;;0.90;;
14348;SDS011;7258;50.376;8.742;2024-03-23T06:31:56;1.70;;;0.97;;
14348;SDS011;7258;50.376;8.742;2024-03-23T06:33:58;0.83;;;0.80;;
14348;SDS011;7258;50.376;8.742;2024-03-23T06:35:59;1.70;;;0.87;;
14348;SDS011;7258;50.376;8.742;2024-03-23T06:38:02;0.80;;;0.80;;
14348;SDS011;7258;50.376;8.742;2024-03-23T06:40:04;1.77;;;0.90;;
14348;SDS011;7258;50.376;8.742;2024-03-23T06:42:09;0.80;;;0.73;;
14348;SDS011;7258;50.376;8.742;2024-03-23T06:44:12;0.83;;;0.80;;
14348;SDS011;7258;50.376;8.742;2024-03-23T06:46:14;1.20;;;0.73;;
14348;SDS011;7258;50.376;8.742;2024-03-23T06:48:15;1.03;;;0.87;;
14348;SDS011;7258;50.376;8.742;2024-03-23T06:50:17;1.30;;;1.20;;
14348;SDS011;7258;50.376;8.742;2024-03-23T06:52:18;1.27;;;0.90;;
14348;SDS011;7258;50.376;8.742;2024-03-23T06:54:20;1.40;;;0.90;;
14348;SDS011;7258;50.376;8.742;2024-03-23T06:56:24;1.63;;;1.00;;
14348;SDS011;7258;50.376;8.742;2024-03-23T06:58:26;1.93;;;1.30;;
14348;SDS011;7258;50.376;8.742;2024-03-23T07:00:28;5.40;;;1.70;;
14348;SDS011;7258;50.376;8.742;2024-03-23T07:02:30;2.37;;;1.60;;
14348;SDS011;7258;50.376;8.742;2024-03-23T07:04:32;2.17;;;1.23;;
14348;SDS011;7258;50.376;8.742;2024-03-23T07:06:34;2.23;;;1.33;;
14348;SDS011;7258;50.376;8.742;2024-03-23T07:08:43;2.77;;;1.47;;
14348;SDS011;7258;50.376;8.742;2024-03-23T07:10:45;3.57;;;1.70;;
14348;SDS011;7258;50.376;8.742;2024-03-23T07:12:47;1.70;;;1.37;;
14348;SDS011;7258;50.376;8.742;2024-03-23T07:14:49;3.30;;;1.87;;
14348;SDS011;7258;50.376;8.742;2024-03-23T07:16:51;4.30;;;2.00;;
14348;SDS011;7258;50.376;8.742;2024-03-23T07:18:53;3.17;;;2.00;;
14348;SDS011;7258;50.376;8.742;2024-03-23T07:20:54;4.97;;;1.50;;
14348;SDS011;7258;50.376;8.742;2024-03-23T07:22:58;2.93;;;1.70;;
14348;SDS011;7258;50.376;8.742;2024-03-23T07:25:00;3.80;;;1.90;;
14348;SDS011;7258;50.376;8.742;2024-03-23T07:27:02;4.43;;;1.50;;
14348;SDS011;7258;50.376;8.742;2024-03-23T07:29:04;2.50;;;1.60;;
14348;SDS011;7258;50.376;8.742;2024-03-23T07:31:08;1.90;;;1.43;;
14348;SDS011;7258;50.376;8.742;2024-03-23T07:33:12;3.50;;;1.90;;
14348;SDS011;7258;50.376;8.742;2024-03-23T07:35:14;3.00;;;1.60;;
14348;SDS011;7258;50.376;8.742;2024-03-23T07:37:15;5.17;;;1.83;;
14348;SDS011;7258;50.376;8.742;2024-03-23T07:39:17;2.70;;;1.77;;
14348;SDS011;7258;50.376;8.742;2024-03-23T07:41:18;3.90;;;1.97;;
14348;SDS011;7258;50.376;8.742;2024-03-23T07:43:21;2.67;;;1.67;;
14348;SDS011;7258;50.376;8.742;2024-03-23T07:45:22;4.13;;;2.10;;
14348;SDS011;7258;50.376;8.742;2024-03-23T07:47:24;4.07;;;1.80;;
14348;SDS011;7258;50.376;8.742;2024-03-23T07:49:27;6.07;;;2.10;;
14348;SDS011;7258;50.376;8.742;2024-03-23T07:51:29;2.30;;;1.93;;
14348;SDS011;7258;50.376;8.742;2024-03-23T07:53:30;5.57;;;2.20;;
14348;SDS011;7258;50.376;8.742;2024-03-23T07:55:33;5.33;;;2.13;;
14348;SDS011;7258;50.376;8.742;2024-03-23T07:57:34;4.53;;;2.80;;
14348;SDS011;7258;50.376;8.742;2024-03-23T07:59:36;3.10;;;2.20;;
14348;SDS011;7258;50.376;8.742;2024-03-23T08:01:37;4.13;;;2.77;;
14348;SDS011;7258;50.376;8.742;2024-03-23T08:03:39;5.87;;;2.70;;
14348;SDS011;7258;50.376;8.742;2024-03-23T08:05:43;6.77;;;3.10;;
14348;SDS011;7258;50.376;8.742;2024-03-23T08:07:45;5.90;;;3.37;;
14348;SDS011;7258;50.376;8.742;2024-03-23T08:09:46;5.43;;;3.60;;
14348;SDS011;7258;50.376;8.742;2024-03-23T08:11:48;7.37;;;3.57;;
14348;SDS011;7258;50.376;8.742;2024-03-23T08:13:50;7.03;;;3.80;;
14348;SDS011;7258;50.376;8.742;2024-03-23T08:15:55;8.73;;;4.27;;
14348;SDS011;7258;50.376;8.742;2024-03-23T08:17:56;7.60;;;4.20;;
14348;SDS011;7258;50.376;8.742;2024-03-23T08:19:58;7.70;;;3.90;;
14348;SDS011;7258;50.376;8.742;2024-03-23T08:22:01;9.37;;;4.43;;
14348;SDS011;7258;50.376;8.742;2024-03-23T08:24:03;6.33;;;4.00;;
14348;SDS011;7258;50.376;8.742;2024-03-23T08:26:05;7.47;;;4.30;;
14348;SDS011;7258;50.376;8.742;2024-03-23T08:28:08;11.87;;;4.67;;
14348;SDS011;7258;50.376;8.742;2024-03-23T08:30:10;6.00;;;4.30;;
14348;SDS011;7258;50.376;8.742;2024-03-23T08:32:14;7.70;;;4.77;;
14348;SDS011;7258;50.376;8.742;2024-03-23T08:34:18;8.77;;;4.77;;
14348;SDS011;7258;50.376;8.742;2024-03-23T08:36:20;11.10;;;5.00;;
14348;SDS011;7258;50.376;8.742;2024-03-23T08:38:23;8.83;;;5.27;;
14348;SDS011;7258;50.376;8.742;2024-03-23T08:40:25;8.97;;;5.30;;
14348;SDS011;7258;50.376;8.742;2024-03-23T08:42:26;9.33;;;4.87;;
14348;SDS011;7258;50.376;8.742;2024-03-23T08:44:28;10.43;;;5.27;;
14348;SDS011;7258;50.376;8.742;2024-03-23T08:46:29;8.57;;;4.87;;
14348;SDS011;7258;50.376;8.742;2024-03-23T08:48:31;11.30;;;5.33;;
14348;SDS011;7258;50.376;8.742;2024-03-23T08:50:33;9.00;;;4.73;;
14348;SDS011;7258;50.376;8.742;2024-03-23T08:52:35;11.93;;;5.10;;
14348;SDS011;7258;50.376;8.742;2024-03-23T08:54:38;9.63;;;4.87;;
14348;SDS011;7258;50.376;8.742;2024-03-23T08:56:40;11.57;;;4.60;;
14348;SDS011;7258;50.376;8.742;2024-03-23T08:58:42;10.70;;;4.87;;
14348;SDS011;7258;50.376;8.742;2024-03-23T09:00:44;7.50;;;4.10;;
14348;SDS011;7258;50.376;8.742;2024-03-23T09:02:47;9.50;;;4.47;;
14348;SDS011;7258;50.376;8.742;2024-03-23T09:04:49;11.80;;;4.50;;
14348;SDS011;7258;50.376;8.742;2024-03-23T09:06:50;11.00;;;4.57;;
14348;SDS011;7258;50.376;8.742;2024-03-23T09:08:52;10.97;;;5.20;;
14348;SDS011;7258;50.376;8.742;2024-03-23T09:10:55;9.37;;;4.30;;
14348;SDS011;7258;50.376;8.742;2024-03-23T09:12:57;9.87;;;4.50;;
14348;SDS011;7258;50.376;8.742;2024-03-23T09:14:57;14.70;;;4.67;;
14348;SDS011;7258;50.376;8.742;2024-03-23T09:16:59;10.97;;;4.83;;
14348;SDS011;7258;50.376;8.742;2024-03-23T09:19:00;10.67;;;4.67;;
14348;SDS011;7258;50.376;8.742;2024-03-23T09:21:03;10.20;;;4.93;;
14348;SDS011;7258;50.376;8.742;2024-03-23T09:23:11;11.53;;;4.27;;
14348;SDS011;7258;50.376;8.742;2024-03-23T09:25:13;12.37;;;4.90;;
14348;SDS011;7258;50.376;8.742;2024-03-23T09:27:15;7.47;;;3.83;;
14348;SDS011;7258;50.376;8.742;2024-03-23T09:29:17;9.60;;;3.83;;
14348;SDS011;7258;50.376;8.742;2024-03-23T09:31:18;10.10;;;4.47;;
14348;SDS011;7258;50.376;8.742;2024-03-23T09:33:20;10.57;;;3.47;;
14348;SDS011;7258;50.376;8.742;2024-03-23T09:35:21;11.53;;;4.30;;
14348;SDS011;7258;50.376;8.742;2024-03-23T09:37:23;7.00;;;3.33;;
14348;SDS011;7258;50.376;8.742;2024-03-23T09:39:24;8.17;;;3.70;;
14348;SDS011;7258;50.376;8.742;2024-03-23T09:41:26;9.30;;;3.27;;
14348;SDS011;7258;50.376;8.742;2024-03-23T09:43:28;8.77;;;3.70;;
14348;SDS011;7258;50.376;8.742;2024-03-23T09:45:30;9.03;;;3.50;;
14348;SDS011;7258;50.376;8.742;2024-03-23T09:47:34;12.20;;;4.10;;
14348;SDS011;7258;50.376;8.742;2024-03-23T09:49:36;11.83;;;3.77;;
14348;SDS011;7258;50.376;8.742;2024-03-23T09:51:38;8.53;;;3.20;;
14348;SDS011;7258;50.376;8.742;2024-03-23T09:53:40;6.77;;;2.87;;
14348;SDS011;7258;50.376;8.742;2024-03-23T09:55:41;10.47;;;3.83;;
14348;SDS011;7258;50.376;8.742;2024-03-23T09:57:44;10.40;;;3.43;;
14348;SDS011;7258;50.376;8.742;2024-03-23T09:59:46;10.00;;;3.10;;
14348;SDS011;7258;50.376;8.742;2024-03-23T10:01:48;9.20;;;3.07;;
14348;SDS011;7258;50.376;8.742;2024-03-23T10:03:50;8.70;;;3.40;;
14348;SDS011;7258;50.376;8.742;2024-03-23T10:06:00;10.97;;;3.23;;
14348;SDS011;7258;50.376;8.742;2024-03-23T10:08:10;10.53;;;3.10;;
14348;SDS011;7258;50.376;8.742;2024-03-23T10:10:19;8.90;;;3.03;;
14348;SDS011;7258;50.376;8.742;2024-03-23T10:12:22;10.67;;;3.87;;
14348;SDS011;7258;50.376;8.742;2024-03-23T10:14:28;7.33;;;3.30;;
14348;SDS011;7258;50.376;8.742;2024-03-23T10:16:32;10.87;;;3.73;;
14348;SDS011;7258;50.376;8.742;2024-03-23T10:18:36;9.30;;;3.43;;
14348;SDS011;7258;50.376;8.742;2024-03-23T10:20:38;12.73;;;3.83;;
14348;SDS011;7258;50.376;8.742;2024-03-23T10:22:40;8.50;;;3.03;;
14348;SDS011;7258;50.376;8.742;2024-03-23T10:24:41;9.77;;;2.90;;
14348;SDS011;7258;50.376;8.742;2024-03-23T10:26:43;8.97;;;3.20;;
14348;SDS011;7258;50.376;8.742;2024-03-23T10:28:56;9.93;;;3.27;;
14348;SDS011;7258;50.376;8.742;2024-03-23T10:31:02;5.17;;;2.33;;
14348;SDS011;7258;50.376;8.742;2024-03-23T10:33:13;6.33;;;2.30;;
14348;SDS011;7258;50.376;8.742;2024-03-23T10:35:17;4.13;;;1.87;;
14348;SDS011;7258;50.376;8.742;2024-03-23T10:37:19;6.60;;;2.60;;
14348;SDS011;7258;50.376;8.742;2024-03-23T10:39:21;3.77;;;2.00;;
14348;SDS011;7258;50.376;8.742;2024-03-23T10:41:24;5.03;;;2.17;;
14348;SDS011;7258;50.376;8.742;2024-03-23T10:43:28;0.10;;;0.10;;
14348;SDS011;7258;50.376;8.742;2024-03-23T10:45:31;0.20;;;0.20;;
14348;SDS011;7258;50.376;8.742;2024-03-23T10:47:34;0.20;;;0.20;;
14348;SDS011;7258;50.376;8.742;2024-03-23T10:49:37;0.10;;;0.10;;
14348;SDS011;7258;50.376;8.742;2024-03-23T10:51:39;0.20;;;0.20;;
14348;SDS011;7258;50.376;8.742;2024-03-23T10:53:40;0.20;;;0.20;;
14348;SDS011;7258;50.376;8.742;2024-03-23T10:55:42;0.10;;;0.10;;
14348;SDS011;7258;50.376;8.742;2024-03-23T10:57:44;0.20;;;0.20;;
14348;SDS011;7258;50.376;8.742;2024-03-23T10:59:51;0.20;;;0.20;;
14348;SDS011;7258;50.376;8.742;2024-03-23T11:01:54;0.20;;;0.20;;
14348;SDS011;7258;50.376;8.742;2024-03-23T11:03:57;0.20;;;0.20;;
14348;SDS011;7258;50.376;8.742;2024-03-23T11:06:00;0.50;;;0.30;;
14348;SDS011;7258;50.376;8.742;2024-03-23T11:08:03;8.83;;;2.30;;
14348;SDS011;7258;50.376;8.742;2024-03-23T11:10:06;8.10;;;2.47;;
14348;SDS011;7258;50.376;8.742;2024-03-23T11:12:27;11.03;;;2.40;;
14348;SDS011;7258;50.376;8.742;2024-03-23T11:14:32;6.90;;;2.50;;
14348;SDS011;7258;50.376;8.742;2024-03-23T11:16:33;13.30;;;3.30;;
14348;SDS011;7258;50.376;8.742;2024-03-23T11:18:36;10.00;;;2.50;;
14348;SDS011;7258;50.376;8.742;2024-03-23T11:20:37;14.37;;;3.00;;
14348;SDS011;7258;50.376;8.742;2024-03-23T11:22:44;12.87;;;2.83;;
14348;SDS011;7258;50.376;8.742;2024-03-23T11:24:49;10.23;;;2.73;;
14348;SDS011;7258;50.376;8.742;2024-03-23T11:26:50;9.83;;;2.87;;
14348;SDS011;7258;50.376;8.742;2024-03-23T11:31:09;10.77;;;2.90;;
14348;SDS011;7258;50.376;8.742;2024-03-23T11:33:12;6.83;;;2.87;;
14348;SDS011;7258;50.376;8.742;2024-03-23T11:35:28;7.93;;;3.23;;
14348;SDS011;7258;50.376;8.742;2024-03-23T11:37:33;6.53;;;2.60;;
14348;SDS011;7258;50.376;8.742;2024-03-23T11:39:35;9.27;;;3.00;;
14348;SDS011;7258;50.376;8.742;2024-03-23T11:41:44;11.13;;;3.30;;
14348;SDS011;7258;50.376;8.742;2024-03-23T11:43:46;6.63;;;2.77;;
14348;SDS011;7258;50.376;8.742;2024-03-23T11:45:49;7.20;;;2.77;;
14348;SDS011;7258;50.376;8.742;2024-03-23T11:48:02;8.40;;;2.83;;
14348;SDS011;7258;50.376;8.742;2024-03-23T11:50:08;5.43;;;2.77;;
14348;SDS011;7258;50.376;8.742;2024-03-23T11:52:09;7.43;;;2.83;;
14348;SDS011;7258;50.376;8.742;2024-03-23T11:54:11;8.30;;;2.67;;
14348;SDS011;7258;50.376;8.742;2024-03-23T11:56:13;8.57;;;3.27;;
14348;SDS011;7258;50.376;8.742;2024-03-23T11:58:16;7.80;;;2.97;;
14348;SDS011;7258;50.376;8.742;2024-03-23T12:00:21;6.97;;;3.30;;
14348;SDS011;7258;50.376;8.742;2024-03-23T12:02:24;6.57;;;2.80;;
14348;SDS011;7258;50.376;8.742;2024-03-23T12:04:25;7.00;;;3.27;;
14348;SDS011;7258;50.376;8.742;2024-03-23T12:06:28;6.33;;;3.20;;
14348;SDS011;7258;50.376;8.742;2024-03-23T12:08:30;7.78;;;2.70;;
14348;SDS011;7258;50.376;8.742;2024-03-23T12:10:33;4.43;;;2.70;;
14348;SDS011;7258;50.376;8.742;2024-03-23T12:12:35;5.73;;;2.90;;
14348;SDS011;7258;50.376;8.742;2024-03-23T12:14:36;5.07;;;2.75;;
14348;SDS011;7258;50.376;8.742;2024-03-23T12:16:38;7.80;;;2.90;;
14348;SDS011;7258;50.376;8.742;2024-03-23T12:18:39;7.20;;;2.73;;
14348;SDS011;7258;50.376;8.742;2024-03-23T12:20:42;5.70;;;2.73;;
14348;SDS011;7258;50.376;8.742;2024-03-23T12:22:43;5.73;;;2.00;;
14348;SDS011;7258;50.376;8.742;2024-03-23T12:24:47;5.60;;;2.53;;
14348;SDS011;7258;50.376;8.742;2024-03-23T12:26:48;7.28;;;2.47;;
14348;SDS011;7258;50.376;8.742;2024-03-23T12:28:51;5.63;;;2.40;;
14348;SDS011;7258;50.376;8.742;2024-03-23T12:30:52;6.67;;;2.97;;
14348;SDS011;7258;50.376;8.742;2024-03-23T12:32:55;6.80;;;2.87;;
14348;SDS011;7258;50.376;8.742;2024-03-23T12:34:57;6.40;;;2.63;;
14348;SDS011;7258;50.376;8.742;2024-03-23T12:36:59;4.77;;;2.93;;
14348;SDS011;7258;50.376;8.742;2024-03-23T12:39:00;6.03;;;2.80;;
14348;SDS011;7258;50.376;8.742;2024-03-23T12:41:02;4.80;;;2.63;;
14348;SDS011;7258;50.376;8.742;2024-03-23T12:43:05;7.17;;;2.83;;
14348;SDS011;7258;50.376;8.742;2024-03-23T12:45:09;7.00;;;3.13;;
14348;SDS011;7258;50.376;8.742;2024-03-23T12:47:10;7.10;;;3.00;;
14348;SDS011;7258;50.376;8.742;2024-03-23T12:49:13;5.43;;;2.60;;
14348;SDS011;7258;50.376;8.742;2024-03-23T12:51:14;6.63;;;2.90;;
14348;SDS011;7258;50.376;8.742;2024-03-23T12:53:16;5.53;;;2.80;;
14348;SDS011;7258;50.376;8.742;2024-03-23T12:55:17;5.53;;;2.60;;
14348;SDS011;7258;50.376;8.742;2024-03-23T12:57:20;5.47;;;2.40;;
14348;SDS011;7258;50.376;8.742;2024-03-23T12:59:22;3.20;;;1.70;;
14348;SDS011;7258;50.376;8.742;2024-03-23T13:01:25;2.63;;;1.60;;
14348;SDS011;7258;50.376;8.742;2024-03-23T13:03:26;5.37;;;1.70;;
14348;SDS011;7258;50.376;8.742;2024-03-23T13:05:29;4.53;;;1.70;;
14348;SDS011;7258;50.376;8.742;2024-03-23T13:07:30;0.33;;;0.33;;
14348;SDS011;7258;50.376;8.742;2024-03-23T13:09:32;0.20;;;0.20;;
14348;SDS011;7258;50.376;8.742;2024-03-23T13:11:33;0.10;;;0.10;;
14348;SDS011;7258;50.376;8.742;2024-03-23T13:13:35;0.20;;;0.20;;
14348;SDS011;7258;50.376;8.742;2024-03-23T13:15:36;0.20;;;0.20;;
14348;SDS011;7258;50.376;8.742;2024-03-23T13:17:39;0.20;;;0.20;;